Time;durP1;ratioP1;P1;durP2;ratioP2;P2;SDS_P1;SDS_P2;PMS_P1;PMS_P2;Temp;Humidity;BMP_temperature;BMP_pressure;BME280_temperature;BME280_humidity;BME280_pressure;Samples;Min_cycle;Max_cycle;Signal;HPM_P1;HPM_P2
2022/06/21 00:00:44;;;;;;;11.10;8.50;;;;;;;;;;4889812;29;20032;-80
2022/06/21 00:03:13;;;;;;;11.65;8.55;;;;;;;;;;4885231;29;20031;-83
2022/06/21 00:05:41;;;;;;;12.95;8.00;;;;;;;;;;4884602;29;20028;-84
2022/06/21 00:08:12;;;;;;;15.27;8.80;;;;;;;;;;4884534;29;20130;-84
2022/06/21 00:10:38;;;;;;;10.02;7.90;;;;;;;;;;4884534;29;20029;-84
2022/06/21 00:13:10;;;;;;;10.95;8.25;;;;;;;;;;4884554;29;20036;-84
2022/06/21 00:15:36;;;;;;;10.70;7.72;;;;;;;;;;4884079;29;20382;-78
2022/06/21 00:18:03;;;;;;;10.02;8.23;;;;;;;;;;4884566;29;20116;-85
2022/06/21 00:20:29;;;;;;;9.25;7.90;;;;;;;;;;4902017;29;20397;-84
2022/06/21 00:22:55;;;;;;;11.45;8.00;;;;;;;;;;4884851;29;20043;-82
2022/06/21 00:25:23;;;;;;;10.52;7.45;;;;;;;;;;4884804;29;20060;-85
2022/06/21 00:27:49;;;;;;;8.65;7.63;;;;;;;;;;4885333;29;20052;-84
2022/06/21 00:30:16;;;;;;;9.93;8.23;;;;;;;;;;4884816;29;20024;-84
2022/06/21 00:32:43;;;;;;;10.45;7.95;;;;;;;;;;4884450;29;20060;-84
2022/06/21 00:35:11;;;;;;;8.98;7.72;;;;;;;;;;4884205;29;20024;-78
2022/06/21 00:37:38;;;;;;;10.80;7.55;;;;;;;;;;4884409;29;20025;-85
2022/06/21 00:40:27;;;;;;;9.63;8.25;;;;;;;;;;4901249;29;20032;-84
2022/06/21 00:42:55;;;;;;;11.85;8.63;;;;;;;;;;4875337;29;20044;-84
2022/06/21 00:45:38;;;;;;;10.77;7.55;;;;;;;;;;4885536;29;20032;-84
2022/06/21 00:48:14;;;;;;;9.18;8.02;;;;;;;;;;4890929;29;20053;-86
2022/06/21 00:50:45;;;;;;;11.88;8.40;;;;;;;;;;4884114;29;20032;-84
2022/06/21 00:53:12;;;;;;;11.15;8.48;;;;;;;;;;4883759;29;20048;-84
2022/06/21 00:55:43;;;;;;;9.93;8.13;;;;;;;;;;4900814;29;20363;-84
2022/06/21 00:58:14;;;;;;;8.40;7.50;;;;;;;;;;4884316;29;20038;-86
2022/06/21 01:00:49;;;;;;;8.35;6.82;;;;;;;;;;4883686;29;20057;-84
2022/06/21 01:03:18;;;;;;;7.28;6.00;;;;;;;;;;4883960;29;20040;-85
2022/06/21 01:05:45;;;;;;;6.75;5.00;;;;;;;;;;4883624;29;20024;-84
2022/06/21 01:08:13;;;;;;;6.57;5.65;;;;;;;;;;4883422;29;20417;-78
2022/06/21 01:10:40;;;;;;;6.63;4.85;;;;;;;;;;4883488;29;20077;-80
2022/06/21 01:13:11;;;;;;;5.75;4.60;;;;;;;;;;4900418;29;20107;-84
2022/06/21 01:15:43;;;;;;;7.82;4.70;;;;;;;;;;4883141;29;20078;-84
2022/06/21 01:18:10;;;;;;;6.80;4.40;;;;;;;;;;4883464;29;20478;-85
2022/06/21 01:20:40;;;;;;;6.57;4.35;;;;;;;;;;4883650;29;20039;-85
2022/06/21 01:23:21;;;;;;;5.25;4.43;;;;;;;;;;4883472;29;20509;-83
2022/06/21 01:26:08;;;;;;;4.88;3.92;;;;;;;;;;4883577;29;20099;-84
2022/06/21 01:28:35;;;;;;;5.05;3.75;;;;;;;;;;4899965;29;20043;-84
2022/06/21 01:31:02;;;;;;;4.97;3.75;;;;;;;;;;4883366;29;20057;-85
2022/06/21 01:33:29;;;;;;;5.38;3.65;;;;;;;;;;4887801;29;20021;-83
2022/06/21 01:35:57;;;;;;;4.97;3.63;;;;;;;;;;4889415;29;20486;-86
2022/06/21 01:38:26;;;;;;;4.78;3.33;;;;;;;;;;4882882;29;20072;-78
2022/06/21 01:40:54;;;;;;;3.97;3.10;;;;;;;;;;4879879;29;20495;-85
2022/06/21 01:43:22;;;;;;;3.90;2.85;;;;;;;;;;4879865;29;20039;-78
2022/06/21 01:45:53;;;;;;;5.20;3.10;;;;;;;;;;4880014;29;20025;-79
2022/06/21 01:48:24;;;;;;;3.83;2.10;;;;;;;;;;4879718;29;20392;-83
2022/06/21 01:50:52;;;;;;;3.55;2.13;;;;;;;;;;4879823;29;20037;-85
2022/06/21 01:53:20;;;;;;;2.42;1.70;;;;;;;;;;4879877;29;20057;-84
2022/06/21 01:55:48;;;;;;;5.03;1.77;;;;;;;;;;4880051;29;20029;-85
2022/06/21 01:58:22;;;;;;;2.78;1.90;;;;;;;;;;4880028;29;20088;-85
2022/06/21 02:01:20;;;;;;;2.97;1.83;;;;;;;;;;4881435;29;20025;-86
2022/06/21 02:03:49;;;;;;;2.28;1.63;;;;;;;;;;4840141;29;20391;-86
2022/06/21 02:06:15;;;;;;;3.08;1.40;;;;;;;;;;4880749;29;20435;-84
2022/06/21 02:08:44;;;;;;;3.28;1.75;;;;;;;;;;4879618;29;20509;-84
2022/06/21 02:11:16;;;;;;;4.18;1.52;;;;;;;;;;4881407;29;20025;-86
2022/06/21 02:13:48;;;;;;;2.63;1.60;;;;;;;;;;4883198;29;20037;-86
2022/06/21 02:16:17;;;;;;;3.58;1.55;;;;;;;;;;4874526;29;20025;-83
2022/06/21 02:19:02;;;;;;;2.20;1.50;;;;;;;;;;4879863;29;20068;-87
2022/06/21 02:21:35;;;;;;;2.03;1.33;;;;;;;;;;4880418;29;20093;-84
2022/06/21 02:24:01;;;;;;;;;;;;;;;;;;4884591;29;20040;-86
2022/06/21 02:26:28;;;;;;;2.80;1.40;;;;;;;;;;4881670;29;19907;-78
2022/06/21 02:28:55;;;;;;;2.70;1.83;;;;;;;;;;4879827;29;20415;-85
2022/06/21 02:31:22;;;;;;;3.08;1.45;;;;;;;;;;4891900;29;20052;-85
2022/06/21 02:33:49;;;;;;;2.33;1.60;;;;;;;;;;4895167;29;20032;-80
2022/06/21 02:36:20;;;;;;;4.03;1.55;;;;;;;;;;4879532;29;20043;-79
2022/06/21 02:38:51;;;;;;;4.80;1.67;;;;;;;;;;4879534;29;20084;-85
2022/06/21 02:41:20;;;;;;;4.63;1.63;;;;;;;;;;4879450;29;20052;-83
2022/06/21 02:43:48;;;;;;;2.20;1.35;;;;;;;;;;4880421;29;20093;-85
2022/06/21 02:46:16;;;;;;;2.40;1.23;;;;;;;;;;4880282;29;20039;-86
2022/06/21 02:48:45;;;;;;;2.22;1.25;;;;;;;;;;4880224;29;20132;-86
2022/06/21 02:51:23;;;;;;;2.97;1.55;;;;;;;;;;4878863;29;20025;-84
2022/06/21 02:53:57;;;;;;;2.53;1.40;;;;;;;;;;4879377;29;20558;-84
2022/06/21 02:56:31;;;;;;;3.45;1.27;;;;;;;;;;4879258;29;20053;-84
2022/06/21 02:58:59;;;;;;;2.45;1.30;;;;;;;;;;4879158;29;20037;-86
2022/06/21 03:01:31;;;;;;;3.05;1.10;;;;;;;;;;4880132;29;20089;-79
2022/06/21 03:03:57;;;;;;;1.90;1.13;;;;;;;;;;4890167;29;20044;-85
2022/06/21 03:06:24;;;;;;;2.85;1.50;;;;;;;;;;4879723;29;20036;-84
2022/06/21 03:08:50;;;;;;;2.72;1.00;;;;;;;;;;4863524;29;20033;-86
2022/06/21 03:11:17;;;;;;;2.03;0.90;;;;;;;;;;4879220;29;20025;-85
2022/06/21 03:13:43;;;;;;;3.00;1.10;;;;;;;;;;4878762;29;20037;-79
2022/06/21 03:16:12;;;;;;;2.05;1.02;;;;;;;;;;4878315;29;20025;-85
2022/06/21 03:18:44;;;;;;;3.20;1.20;;;;;;;;;;4863312;29;20397;-83
2022/06/21 03:21:12;;;;;;;2.75;1.00;;;;;;;;;;4878473;29;20047;-83
2022/06/21 03:23:41;;;;;;;2.08;1.00;;;;;;;;;;4878842;29;20060;-78
2022/06/21 03:26:07;;;;;;;2.85;0.95;;;;;;;;;;4862936;29;20029;-79
2022/06/21 03:28:35;;;;;;;2.00;0.98;;;;;;;;;;4878274;29;20037;-84
2022/06/21 03:31:18;;;;;;;1.73;0.98;;;;;;;;;;4878616;29;20061;-86
2022/06/21 03:33:46;;;;;;;2.83;0.93;;;;;;;;;;4878934;29;20033;-84
2022/06/21 03:36:15;;;;;;;4.70;1.10;;;;;;;;;;4879028;29;20033;-84
2022/06/21 03:38:45;;;;;;;2.67;0.90;;;;;;;;;;4879881;29;20033;-77
2022/06/21 03:44:02;;;;;;;2.63;0.90;;;;;;;;;;4880375;29;20093;-83
2022/06/21 03:46:33;;;;;;;1.83;0.90;;;;;;;;;;4878635;29;20029;-84
2022/06/21 03:49:05;;;;;;;4.35;1.15;;;;;;;;;;4880907;29;20037;-78
2022/06/21 03:51:36;;;;;;;2.33;1.00;;;;;;;;;;4879918;29;20483;-84
2022/06/21 03:54:11;;;;;;;2.38;1.00;;;;;;;;;;4878220;29;20273;-84
2022/06/21 03:56:40;;;;;;;2.20;0.90;;;;;;;;;;4879765;29;20036;-83
2022/06/21 03:59:10;;;;;;;2.90;1.17;;;;;;;;;;4882299;29;20025;-85
2022/06/21 04:02:00;;;;;;;7.70;1.45;;;;;;;;;;4881670;29;20137;-84
2022/06/21 04:04:34;;;;;;;3.72;1.20;;;;;;;;;;4873280;29;20041;-84
2022/06/21 04:07:00;;;;;;;1.95;1.00;;;;;;;;;;4866376;29;20115;-83
2022/06/21 04:09:46;;;;;;;3.30;1.00;;;;;;;;;;4882150;29;20036;-85
2022/06/21 04:12:19;;;;;;;3.55;1.20;;;;;;;;;;4899652;23;20431;-84
2022/06/21 04:15:08;;;;;;;3.58;1.45;;;;;;;;;;4884646;29;20033;-78
2022/06/21 04:17:56;;;;;;;2.67;1.10;;;;;;;;;;4884767;29;20025;-84
2022/06/21 04:20:31;;;;;;;2.85;1.10;;;;;;;;;;4884941;29;20084;-85
2022/06/21 04:23:04;;;;;;;3.45;1.10;;;;;;;;;;4884364;29;20035;-82
2022/06/21 04:25:34;;;;;;;3.35;1.30;;;;;;;;;;4884422;29;20477;-84
2022/06/21 04:28:10;;;;;;;3.30;1.10;;;;;;;;;;4884075;29;20056;-83
2022/06/21 04:30:40;;;;;;;2.60;1.00;;;;;;;;;;4884129;29;20508;-84
2022/06/21 04:33:24;;;;;;;2.63;1.10;;;;;;;;;;4883776;29;20068;-82
2022/06/21 04:35:58;;;;;;;3.95;1.30;;;;;;;;;;4883915;29;20025;-84
2022/06/21 04:38:24;;;;;;;4.85;1.30;;;;;;;;;;4888858;29;20036;-83
2022/06/21 04:41:00;;;;;;;1.80;1.00;;;;;;;;;;4884161;29;20032;-84
2022/06/21 04:43:32;;;;;;;2.72;0.95;;;;;;;;;;4883394;29;20063;-77
2022/06/21 04:46:00;;;;;;;4.93;1.38;;;;;;;;;;4899342;29;20386;-79
2022/06/21 04:48:34;;;;;;;3.40;1.10;;;;;;;;;;4879897;29;20037;-78
2022/06/21 04:51:09;;;;;;;7.78;1.10;;;;;;;;;;4883473;29;20032;-86
2022/06/21 04:53:40;;;;;;;4.32;0.95;;;;;;;;;;4883249;29;20064;-80
2022/06/21 04:56:18;;;;;;;2.40;0.80;;;;;;;;;;4899741;29;20466;-79
2022/06/21 04:58:45;;;;;;;5.40;0.98;;;;;;;;;;4883586;29;20028;-84
2022/06/21 05:01:30;;;;;;;4.30;0.90;;;;;;;;;;4883799;29;20056;-82
2022/06/21 05:04:02;;;;;;;3.30;0.95;;;;;;;;;;4883812;29;20092;-86
2022/06/21 05:06:28;;;;;;;4.30;0.82;;;;;;;;;;4881702;29;20039;-80
2022/06/21 05:08:54;;;;;;;1.52;0.60;;;;;;;;;;4882494;29;20050;-83
2022/06/21 05:11:22;;;;;;;5.18;0.85;;;;;;;;;;4882897;29;20091;-85
2022/06/21 05:13:49;;;;;;;5.20;0.80;;;;;;;;;;4882672;29;20402;-79
2022/06/21 05:16:21;;;;;;;3.10;0.80;;;;;;;;;;4882634;29;20029;-81
2022/06/21 05:18:56;;;;;;;2.90;1.03;;;;;;;;;;4885281;29;20036;-79
2022/06/21 05:21:29;;;;;;;3.30;0.77;;;;;;;;;;4917611;29;20384;-78
2022/06/21 05:23:55;;;;;;;1.90;0.70;;;;;;;;;;4900691;29;20036;-78
2022/06/21 05:26:28;;;;;;;2.17;0.70;;;;;;;;;;4917798;29;20024;-79
2022/06/21 05:28:57;;;;;;;2.05;0.90;;;;;;;;;;4917567;29;20044;-78
2022/06/21 05:31:29;;;;;;;2.53;0.80;;;;;;;;;;4901042;29;20031;-82
2022/06/21 05:33:55;;;;;;;4.22;0.70;;;;;;;;;;4901300;29;20023;-82
2022/06/21 05:36:23;;;;;;;3.45;0.75;;;;;;;;;;4901970;29;20032;-86
2022/06/21 05:38:54;;;;;;;4.22;1.10;;;;;;;;;;4901346;29;20394;-78
2022/06/21 05:41:31;;;;;;;4.35;0.88;;;;;;;;;;4901947;29;20069;-89
2022/06/21 05:44:02;;;;;;;1.95;0.68;;;;;;;;;;4902144;29;20060;-78
2022/06/21 05:46:29;;;;;;;2.55;0.70;;;;;;;;;;4901293;29;20036;-78
2022/06/21 05:48:57;;;;;;;2.97;0.60;;;;;;;;;;4921681;29;20088;-80
2022/06/21 05:51:26;;;;;;;2.58;0.75;;;;;;;;;;4902108;29;20036;-78
2022/06/21 05:53:59;;;;;;;3.17;0.75;;;;;;;;;;4918204;29;20036;-78
2022/06/21 05:56:26;;;;;;;2.22;0.70;;;;;;;;;;4901210;29;20032;-88
2022/06/21 05:58:56;;;;;;;3.40;0.80;;;;;;;;;;4901694;29;20350;-87
2022/06/21 06:01:27;;;;;;;2.45;0.68;;;;;;;;;;4901011;29;20031;-77
2022/06/21 06:03:57;;;;;;;3.47;0.73;;;;;;;;;;4900559;29;20543;-78
2022/06/21 06:06:23;;;;;;;2.92;0.75;;;;;;;;;;4900595;29;20032;-80
2022/06/21 06:09:01;;;;;;;3.72;0.82;;;;;;;;;;4900760;29;20070;-78
2022/06/21 06:14:21;;;;;;;4.13;0.65;;;;;;;;;;4917884;29;20450;-78
2022/06/21 06:16:55;;;;;;;2.47;0.90;;;;;;;;;;4900748;29;20028;-79
2022/06/21 06:19:29;;;;;;;3.03;0.70;;;;;;;;;;4900844;29;20059;-87
2022/06/21 06:22:15;;;;;;;4.32;0.77;;;;;;;;;;4900482;29;20140;-81
2022/06/21 06:24:48;;;;;;;1.65;0.60;;;;;;;;;;4900260;29;20024;-84
2022/06/21 06:27:26;;;;;;;2.72;0.95;;;;;;;;;;4917299;29;20028;-82
2022/06/21 06:30:25;;;;;;;3.38;0.80;;;;;;;;;;4900722;29;20445;-89
2022/06/21 06:33:10;;;;;;;2.20;0.60;;;;;;;;;;4860723;29;20043;-83
2022/06/21 06:35:44;;;;;;;2.58;0.60;;;;;;;;;;4900770;29;20035;-87
2022/06/21 06:38:13;;;;;;;2.08;0.60;;;;;;;;;;4902120;29;20036;-82
2022/06/21 06:40:42;;;;;;;3.50;0.60;;;;;;;;;;4905814;29;20028;-81
2022/06/21 06:43:18;;;;;;;3.25;0.70;;;;;;;;;;4899378;29;20024;-82
2022/06/21 06:45:44;;;;;;;2.72;0.70;;;;;;;;;;4900139;29;20039;-80
2022/06/21 06:48:17;;;;;;;4.63;0.82;;;;;;;;;;4901825;29;20425;-80
2022/06/21 06:50:54;;;;;;;4.35;0.70;;;;;;;;;;4916553;29;20031;-79
2022/06/21 06:53:59;;;;;;;2.20;0.60;;;;;;;;;;4891929;29;20033;-86
2022/06/21 06:56:37;;;;;;;3.40;0.77;;;;;;;;;;4843328;24;20327;-87
2022/06/21 06:59:08;;;;;;;3.63;0.73;;;;;;;;;;4860281;29;20033;-78
2022/06/21 07:01:40;;;;;;;3.25;0.70;;;;;;;;;;4895124;29;20505;-81
2022/06/21 07:04:09;;;;;;;3.00;0.98;;;;;;;;;;4881283;29;20032;-82
2022/06/21 07:06:38;;;;;;;4.05;0.77;;;;;;;;;;4881884;29;20569;-80
2022/06/21 07:09:11;;;;;;;2.83;0.70;;;;;;;;;;4897510;29;20041;-81
2022/06/21 07:11:40;;;;;;;2.67;0.73;;;;;;;;;;4879316;29;20367;-86
2022/06/21 07:14:27;;;;;;;3.45;1.00;;;;;;;;;;4862777;29;20132;-80
2022/06/21 07:16:56;;;;;;;3.22;0.82;;;;;;;;;;4863522;29;20029;-84
2022/06/21 07:19:22;;;;;;;3.20;0.70;;;;;;;;;;4864950;29;20569;-86
2022/06/21 07:21:49;;;;;;;3.88;0.90;;;;;;;;;;4881833;29;20518;-81
2022/06/21 07:24:16;;;;;;;3.45;0.60;;;;;;;;;;4862465;29;20029;-78
2022/06/21 07:26:47;;;;;;;3.25;0.73;;;;;;;;;;4878783;29;20029;-78
2022/06/21 07:29:19;;;;;;;2.60;0.55;;;;;;;;;;4862843;29;20037;-79
2022/06/21 07:31:51;;;;;;;2.40;0.60;;;;;;;;;;4863630;29;20097;-79
2022/06/21 07:34:31;;;;;;;3.92;0.88;;;;;;;;;;4866449;29;20403;-78
2022/06/21 07:37:03;;;;;;;3.47;0.80;;;;;;;;;;4882531;29;20025;-79
2022/06/21 07:39:33;;;;;;;2.72;0.70;;;;;;;;;;4882132;29;20072;-80
2022/06/21 07:41:59;;;;;;;4.00;1.05;;;;;;;;;;4865292;29;20062;-87
2022/06/21 07:44:35;;;;;;;1.73;0.80;;;;;;;;;;4865715;29;20030;-78
2022/06/21 07:47:07;;;;;;;2.47;0.70;;;;;;;;;;4865532;29;20416;-78
2022/06/21 07:49:38;;;;;;;2.20;0.68;;;;;;;;;;4865154;29;20542;-78
2022/06/21 07:52:25;;;;;;;3.57;0.87;;;;;;;;;;4865510;29;20490;-79
2022/06/21 07:55:14;;;;;;;2.13;0.60;;;;;;;;;;4865384;29;20337;-78
2022/06/21 07:57:43;;;;;;;3.08;0.65;;;;;;;;;;4874396;29;20069;-79
2022/06/21 08:00:12;;;;;;;4.05;0.80;;;;;;;;;;4873905;29;20025;-78
2022/06/21 08:08:35;;;;;;;2.05;0.60;;;;;;;;;;4875475;29;20124;-79
2022/06/21 08:11:08;;;;;;;2.95;0.85;;;;;;;;;;4870563;29;20071;-79
2022/06/21 08:13:34;;;;;;;2.33;0.68;;;;;;;;;;4863078;29;20119;-79
2022/06/21 08:16:06;;;;;;;3.88;0.68;;;;;;;;;;4861555;29;20028;-80
2022/06/21 08:18:37;;;;;;;2.97;0.85;;;;;;;;;;4870662;29;20172;-78
2022/06/21 08:21:09;;;;;;;3.53;0.68;;;;;;;;;;4846558;29;20086;-78
2022/06/21 08:24:02;;;;;;;3.15;0.80;;;;;;;;;;4848455;29;20037;-80
2022/06/21 08:26:31;;;;;;;1.77;0.52;;;;;;;;;;4862262;29;20093;-77
2022/06/21 08:29:03;;;;;;;2.33;0.63;;;;;;;;;;4847880;29;20038;-78
2022/06/21 08:31:38;;;;;;;4.07;0.43;;;;;;;;;;4846341;29;20029;-81
2022/06/21 08:34:07;;;;;;;1.83;0.60;;;;;;;;;;4846776;29;20048;-80
2022/06/21 08:36:33;;;;;;;1.55;0.43;;;;;;;;;;4864321;29;20040;-80
2022/06/21 08:39:07;;;;;;;2.97;0.70;;;;;;;;;;4864368;29;20032;-80
2022/06/21 08:44:36;;;;;;;2.58;0.57;;;;;;;;;;4879302;29;20063;-80
2022/06/21 08:47:19;;;;;;;1.35;0.50;;;;;;;;;;4848035;29;20062;-80
2022/06/21 08:49:58;;;;;;;2.95;0.73;;;;;;;;;;4874977;29;20048;-81
2022/06/21 08:52:43;;;;;;;2.15;0.63;;;;;;;;;;4855520;29;20089;-81
2022/06/21 08:55:28;;;;;;;1.60;0.60;;;;;;;;;;4873360;29;20436;-82
2022/06/21 08:58:00;;;;;;;2.00;0.63;;;;;;;;;;4855666;29;20053;-81
2022/06/21 09:00:26;;;;;;;3.45;0.70;;;;;;;;;;4856296;29;20029;-79
2022/06/21 09:02:56;;;;;;;2.10;0.70;;;;;;;;;;4863153;29;20057;-81
2022/06/21 09:05:40;;;;;;;1.23;0.40;;;;;;;;;;4879604;29;20031;-82
2022/06/21 09:08:15;;;;;;;4.95;0.82;;;;;;;;;;4864056;29;20041;-81
2022/06/21 09:11:00;;;;;;;1.73;0.50;;;;;;;;;;4864307;29;20092;-81
2022/06/21 09:13:32;;;;;;;2.00;0.50;;;;;;;;;;4863873;29;20033;-81
2022/06/21 09:15:58;;;;;;;2.92;0.60;;;;;;;;;;4864115;29;20075;-81
2022/06/21 09:18:32;;;;;;;1.92;0.75;;;;;;;;;;4864113;29;20482;-83
2022/06/21 09:21:06;;;;;;;2.28;0.50;;;;;;;;;;4862022;29;20037;-79
2022/06/21 09:23:51;;;;;;;3.20;0.60;;;;;;;;;;4851491;29;20029;-81
2022/06/21 09:26:17;;;;;;;2.67;0.60;;;;;;;;;;4863883;29;20036;-79
2022/06/21 09:28:51;;;;;;;3.83;0.80;;;;;;;;;;4863546;29;20037;-83
2022/06/21 09:31:17;;;;;;;2.35;0.60;;;;;;;;;;4863674;29;20451;-82
2022/06/21 09:33:50;;;;;;;4.50;0.80;;;;;;;;;;4851176;29;20037;-80
2022/06/21 09:36:22;;;;;;;2.03;0.55;;;;;;;;;;4845266;29;20499;-80
2022/06/21 09:39:06;;;;;;;3.72;0.60;;;;;;;;;;4847605;29;20033;-83
2022/06/21 09:41:44;;;;;;;2.05;0.60;;;;;;;;;;4847053;29;20029;-81
2022/06/21 09:44:14;;;;;;;2.55;0.77;;;;;;;;;;4863747;29;20033;-81
2022/06/21 09:46:58;;;;;;;1.92;0.60;;;;;;;;;;4880675;29;20058;-86
2022/06/21 09:49:33;;;;;;;2.88;0.70;;;;;;;;;;4863663;29;20390;-82
2022/06/21 09:51:59;;;;;;;2.17;0.60;;;;;;;;;;4863435;29;20031;-83
2022/06/21 09:54:36;;;;;;;3.05;0.60;;;;;;;;;;4880040;29;20427;-81
2022/06/21 09:57:21;;;;;;;3.20;0.90;;;;;;;;;;4863442;29;20196;-84
2022/06/21 10:00:06;;;;;;;1.98;0.70;;;;;;;;;;4864276;29;20061;-83
2022/06/21 10:02:35;;;;;;;1.90;0.60;;;;;;;;;;4863152;29;20363;-79
2022/06/21 10:05:12;;;;;;;2.45;0.80;;;;;;;;;;4879684;29;20029;-90
2022/06/21 10:07:50;;;;;;;3.83;0.80;;;;;;;;;;4863764;29;20041;-85
2022/06/21 10:10:31;;;;;;;3.20;0.70;;;;;;;;;;4864032;29;20037;-86
2022/06/21 10:13:16;;;;;;;2.25;0.60;;;;;;;;;;4872991;29;20108;-84
2022/06/21 10:15:47;;;;;;;1.92;0.70;;;;;;;;;;4855747;29;20033;-83
2022/06/21 10:18:47;;;;;;;3.72;0.75;;;;;;;;;;4861857;29;20383;-80
2022/06/21 10:21:31;;;;;;;2.80;0.60;;;;;;;;;;4824589;29;20402;-87
2022/06/21 10:24:12;;;;;;;3.60;0.57;;;;;;;;;;4849957;29;20045;-84
2022/06/21 10:26:42;;;;;;;3.77;0.70;;;;;;;;;;4851912;29;20025;-89
2022/06/21 10:29:33;;;;;;;2.35;0.60;;;;;;;;;;4846308;29;20377;-84
2022/06/21 10:32:11;;;;;;;3.15;0.73;;;;;;;;;;4845460;29;20030;-83
2022/06/21 10:34:37;;;;;;;2.15;0.93;;;;;;;;;;4844751;29;20437;-79
2022/06/21 10:37:12;;;;;;;2.65;0.68;;;;;;;;;;4861168;29;20025;-80
2022/06/21 10:39:38;;;;;;;1.38;0.57;;;;;;;;;;4854483;29;20072;-79
2022/06/21 10:45:01;;;;;;;2.28;0.70;;;;;;;;;;4878962;29;20039;-79
2022/06/21 10:47:46;;;;;;;2.65;0.70;;;;;;;;;;4862928;29;20033;-81
2022/06/21 10:50:21;;;;;;;4.90;0.95;;;;;;;;;;4861313;29;20069;-79
2022/06/21 10:52:50;;;;;;;3.42;0.90;;;;;;;;;;4854547;29;20037;-80
2022/06/21 10:55:46;;;;;;;3.40;0.80;;;;;;;;;;4853890;29;20036;-79
2022/06/21 10:58:19;;;;;;;3.85;0.90;;;;;;;;;;4859704;29;20113;-86
2022/06/21 11:01:21;;;;;;;2.60;0.80;;;;;;;;;;4847849;29;20036;-78
2022/06/21 11:03:53;;;;;;;2.03;0.75;;;;;;;;;;4861105;29;20036;-77
2022/06/21 11:06:30;;;;;;;2.53;0.80;;;;;;;;;;4861702;29;20511;-80
2022/06/21 11:09:03;;;;;;;3.53;0.70;;;;;;;;;;4850395;29;20049;-80
2022/06/21 11:11:35;;;;;;;2.17;0.75;;;;;;;;;;4857566;29;20479;-81
2022/06/21 11:14:09;;;;;;;2.22;0.65;;;;;;;;;;4857839;29;20033;-79
2022/06/21 11:16:38;;;;;;;1.92;0.68;;;;;;;;;;4855249;29;20056;-78
2022/06/21 11:19:24;;;;;;;3.10;0.60;;;;;;;;;;4857829;29;20453;-77
2022/06/21 11:21:53;;;;;;;2.10;0.60;;;;;;;;;;4857489;29;20065;-77
2022/06/21 11:24:22;;;;;;;3.28;0.80;;;;;;;;;;4857494;29;20025;-79
2022/06/21 11:26:51;;;;;;;3.92;0.70;;;;;;;;;;4864534;29;20043;-77
2022/06/21 11:29:36;;;;;;;2.35;0.60;;;;;;;;;;4865701;29;20405;-77
2022/06/21 11:32:17;;;;;;;3.88;0.68;;;;;;;;;;4866101;29;20402;-79
2022/06/21 11:34:43;;;;;;;2.35;0.60;;;;;;;;;;4866165;29;20025;-77
2022/06/21 11:37:25;;;;;;;2.20;0.50;;;;;;;;;;4866117;29;20538;-80
2022/06/21 11:39:55;;;;;;;3.05;0.68;;;;;;;;;;4865904;29;20037;-79
2022/06/21 11:42:26;;;;;;;2.10;0.50;;;;;;;;;;4866024;29;20053;-77
2022/06/21 11:44:55;;;;;;;2.92;0.60;;;;;;;;;;4860099;29;20034;-77
2022/06/21 11:47:40;;;;;;;2.65;0.57;;;;;;;;;;4869712;29;20134;-78
2022/06/21 11:50:09;;;;;;;7.88;1.25;;;;;;;;;;4864212;29;20029;-78
2022/06/21 11:53:01;;;;;;;2.40;0.70;;;;;;;;;;4854710;29;20025;-75
2022/06/21 11:55:35;;;;;;;2.35;0.70;;;;;;;;;;4854111;29;20081;-77
2022/06/21 11:58:01;;;;;;;2.47;0.70;;;;;;;;;;4861709;29;20096;-77
2022/06/21 12:00:34;;;;;;;2.90;0.65;;;;;;;;;;4856076;29;20117;-75
2022/06/21 12:03:02;;;;;;;1.85;0.70;;;;;;;;;;4854803;29;20029;-76
2022/06/21 12:05:52;;;;;;;2.13;0.65;;;;;;;;;;4859245;29;20073;-77
2022/06/21 12:08:24;;;;;;;2.17;0.80;;;;;;;;;;4857640;29;20515;-81
2022/06/21 12:10:52;;;;;;;3.57;0.80;;;;;;;;;;4855007;29;20034;-74
2022/06/21 12:13:45;;;;;;;3.00;0.75;;;;;;;;;;4860689;29;20517;-76
2022/06/21 12:16:18;;;;;;;2.20;0.67;;;;;;;;;;4870998;29;20049;-77
2022/06/21 12:18:44;;;;;;;;;;;;;;;;;;4872413;29;20076;-76
2022/06/21 12:21:16;;;;;;;3.05;0.70;;;;;;;;;;4856923;29;19998;-79
2022/06/21 12:23:44;;;;;;;1.33;0.60;;;;;;;;;;4859619;29;20059;-78
2022/06/21 12:26:24;;;;;;;3.83;0.60;;;;;;;;;;4865245;29;20044;-78
2022/06/21 12:28:52;;;;;;;1.40;0.63;;;;;;;;;;4865252;29;20041;-77
2022/06/21 12:31:32;;;;;;;1.73;0.50;;;;;;;;;;4859175;29;20089;-78
2022/06/21 12:34:00;;;;;;;1.77;0.52;;;;;;;;;;4871305;29;20052;-79
2022/06/21 12:36:49;;;;;;;1.20;0.50;;;;;;;;;;4863999;29;20021;-75
2022/06/21 12:39:18;;;;;;;1.67;0.68;;;;;;;;;;4844067;29;20052;-79
2022/06/21 12:42:11;;;;;;;1.65;0.50;;;;;;;;;;4859019;29;20077;-76
2022/06/21 12:44:53;;;;;;;2.10;0.47;;;;;;;;;;4838284;29;20352;-80
2022/06/21 12:47:33;;;;;;;2.50;0.60;;;;;;;;;;4902398;24;20052;-80
2022/06/21 12:50:17;;;;;;;1.85;0.60;;;;;;;;;;4874349;29;20041;-80
2022/06/21 12:52:47;;;;;;;1.55;0.57;;;;;;;;;;4891045;29;20438;-77
2022/06/21 12:55:36;;;;;;;1.55;0.50;;;;;;;;;;4895678;29;20390;-74
2022/06/21 12:58:02;;;;;;;1.70;0.68;;;;;;;;;;4897574;29;20047;-80
2022/06/21 13:00:33;;;;;;;1.77;0.60;;;;;;;;;;4909902;29;20016;-78
2022/06/21 13:02:59;;;;;;;1.50;0.50;;;;;;;;;;4909524;29;20043;-77
2022/06/21 13:05:25;;;;;;;2.55;0.57;;;;;;;;;;4909952;29;20024;-79
2022/06/21 13:08:13;;;;;;;2.25;0.60;;;;;;;;;;4883674;29;20055;-95
2022/06/21 13:11:00;;;;;;;1.83;0.65;;;;;;;;;;4883601;29;20470;-78
2022/06/21 13:13:32;;;;;;;1.98;0.50;;;;;;;;;;4896935;29;20036;-78
2022/06/21 13:16:04;;;;;;;3.53;0.65;;;;;;;;;;4892551;29;20541;-78
2022/06/21 13:18:48;;;;;;;2.03;0.60;;;;;;;;;;4907203;29;20052;-77
2022/06/21 13:21:15;;;;;;;1.08;0.50;;;;;;;;;;4898232;29;20032;-78
2022/06/21 13:23:53;;;;;;;2.50;0.70;;;;;;;;;;4918360;29;20540;-77
2022/06/21 13:26:23;;;;;;;2.55;0.70;;;;;;;;;;4914486;29;20126;-76
2022/06/21 13:28:49;;;;;;;2.47;0.73;;;;;;;;;;4889672;29;20076;-81
2022/06/21 13:31:38;;;;;;;1.80;0.68;;;;;;;;;;4900160;29;20024;-79
2022/06/21 13:34:06;;;;;;;2.33;0.70;;;;;;;;;;4904024;29;20056;-79
2022/06/21 13:36:44;;;;;;;2.95;0.77;;;;;;;;;;4890751;29;20031;-81
2022/06/21 13:39:23;;;;;;;2.45;0.60;;;;;;;;;;4890727;29;20036;-78
2022/06/21 13:44:44;;;;;;;1.77;0.55;;;;;;;;;;4918093;29;20043;-76
2022/06/21 13:47:22;;;;;;;3.60;0.70;;;;;;;;;;4882108;29;20060;-78
2022/06/21 13:49:50;;;;;;;2.05;0.60;;;;;;;;;;4894470;29;20047;-75
2022/06/21 13:52:28;;;;;;;1.67;0.55;;;;;;;;;;4890725;29;20524;-78
2022/06/21 13:55:04;;;;;;;1.75;0.60;;;;;;;;;;4888419;29;20063;-78
2022/06/21 13:57:36;;;;;;;2.33;0.60;;;;;;;;;;4889156;29;20027;-77
2022/06/21 14:00:04;;;;;;;2.22;0.57;;;;;;;;;;4892742;29;20020;-75
2022/06/21 14:02:44;;;;;;;1.60;0.50;;;;;;;;;;4897628;29;20040;-78
2022/06/21 14:05:10;;;;;;;3.42;0.70;;;;;;;;;;4897499;29;20096;-75
2022/06/21 14:07:47;;;;;;;1.98;0.70;;;;;;;;;;4898711;29;20467;-77
2022/06/21 14:10:22;;;;;;;3.03;0.70;;;;;;;;;;4898639;29;20466;-82
2022/06/21 14:12:53;;;;;;;5.63;0.70;;;;;;;;;;4899043;29;20041;-82
2022/06/21 14:15:28;;;;;;;1.25;0.63;;;;;;;;;;4910971;29;20032;-81
2022/06/21 14:18:00;;;;;;;2.28;0.60;;;;;;;;;;4916383;29;20123;-89
2022/06/21 14:20:35;;;;;;;2.10;0.63;;;;;;;;;;4916931;29;20027;-84
2022/06/21 14:23:09;;;;;;;2.30;0.65;;;;;;;;;;4916790;29;20028;-90
2022/06/21 14:25:46;;;;;;;1.95;0.77;;;;;;;;;;4918065;29;20028;-91
2022/06/21 14:28:20;;;;;;;2.30;0.70;;;;;;;;;;4916053;29;20500;-80
2022/06/21 14:30:58;;;;;;;2.42;0.52;;;;;;;;;;4916253;29;20079;-77
2022/06/21 14:33:34;;;;;;;1.80;0.70;;;;;;;;;;4916180;29;20039;-78
2022/06/21 14:36:20;;;;;;;1.50;0.60;;;;;;;;;;4916593;29;20028;-80
2022/06/21 14:38:52;;;;;;;1.85;0.60;;;;;;;;;;4917690;29;20453;-72
2022/06/21 14:41:22;;;;;;;2.00;0.77;;;;;;;;;;4916561;29;20032;-80
2022/06/21 14:44:01;;;;;;;2.78;0.50;;;;;;;;;;4916425;29;20034;-81
2022/06/21 14:46:27;;;;;;;2.75;0.60;;;;;;;;;;4915867;29;20486;-80
2022/06/21 14:49:20;;;;;;;1.23;0.40;;;;;;;;;;4916014;29;20091;-78
2022/06/21 14:51:47;;;;;;;1.77;0.80;;;;;;;;;;4887573;29;20033;-79
2022/06/21 14:54:13;;;;;;;1.73;0.52;;;;;;;;;;4917201;29;20028;-78
2022/06/21 14:57:01;;;;;;;1.50;0.60;;;;;;;;;;4917182;29;20121;-78
2022/06/21 14:59:45;;;;;;;1.45;0.63;;;;;;;;;;4915938;29;20473;-78
2022/06/21 15:02:27;;;;;;;2.45;0.70;;;;;;;;;;4915755;29;20513;-79
2022/06/21 15:04:55;;;;;;;2.03;0.80;;;;;;;;;;4916193;29;20485;-78
2022/06/21 15:07:44;;;;;;;2.05;0.60;;;;;;;;;;4915871;29;20059;-80
2022/06/21 15:10:14;;;;;;;2.75;0.68;;;;;;;;;;4906122;29;20048;-76
2022/06/21 15:12:47;;;;;;;1.92;0.60;;;;;;;;;;4915898;29;20533;-74
2022/06/21 15:15:17;;;;;;;1.42;0.57;;;;;;;;;;4917342;29;20493;-77
2022/06/21 15:17:50;;;;;;;2.20;0.60;;;;;;;;;;4915845;29;20503;-75
2022/06/21 15:20:29;;;;;;;1.35;0.57;;;;;;;;;;4915724;29;20028;-76
2022/06/21 15:23:01;;;;;;;1.35;0.60;;;;;;;;;;4917121;29;20020;-79
2022/06/21 15:25:27;;;;;;;3.27;0.60;;;;;;;;;;4915786;29;20519;-75
2022/06/21 15:28:14;;;;;;;3.35;0.75;;;;;;;;;;4915605;29;20292;-74
2022/06/21 15:30:42;;;;;;;1.50;0.70;;;;;;;;;;4914665;29;20044;-75
2022/06/21 15:33:14;;;;;;;2.70;0.80;;;;;;;;;;4915344;29;20029;-74
2022/06/21 15:35:48;;;;;;;1.52;0.45;;;;;;;;;;4915690;29;20031;-75
2022/06/21 15:38:17;;;;;;;2.63;0.60;;;;;;;;;;4916802;29;20394;-81
2022/06/21 15:40:51;;;;;;;1.00;0.50;;;;;;;;;;4915823;29;20078;-79